Ashfield, Pennsylvania
Current Conditions -  °F | °C
As of 6:51 PM on Thursday 18 Dec 2014 (Local Time) from KABE Reporting Station
Overcast Overcast  
Wind Chill: 30°   Ceiling: 3200
Heat Index: 37°   Visibility: 10mi
Dew Point: 24°   Wind: 10mph
Humidity: 59%   Direction: 290°WNW
Pressure: 30"   Gusts: NA
Location:  40.78°N, 75.71°W
Report Text: KABE 182351Z 29009KT 10SM OVC032 03/M04 A3000 RMK AO2 SLP163 T00281044 10039 20022 50000
Loading
Personal Weather Stations






























Interactive Weather Map New forecast layout! Learn more

10-Day Weather Forecast

Advertisements
Track Severe Weather on mobile